createdAt,value
2022-11-12T00:00:06.778Z,98043.81
2022-11-12T00:02:51.720Z,98039.69
2022-11-12T00:05:36.644Z,98039.16
2022-11-12T00:08:21.565Z,98040.06
2022-11-12T00:11:06.497Z,98032.84
2022-11-12T00:13:51.467Z,98042.53
2022-11-12T00:16:36.413Z,98046.44
2022-11-12T00:19:21.813Z,98050.31
2022-11-12T00:22:06.935Z,98040.25
2022-11-12T00:24:51.637Z,98045.81
2022-11-12T00:27:36.709Z,98049.06
2022-11-12T00:30:21.513Z,98050.31
2022-11-12T00:33:06.514Z,98047.84
2022-11-12T00:35:51.368Z,98054.03
2022-11-12T00:38:36.172Z,98047.47
2022-11-12T00:41:21.241Z,98047.28
2022-11-12T00:44:06.017Z,98040.25
2022-11-12T00:46:50.853Z,98041.66
2022-11-12T00:49:35.750Z,98044.72
2022-11-12T00:52:20.732Z,98037.91
2022-11-12T00:55:05.551Z,98037.00
2022-11-12T00:57:50.635Z,98042.81
2022-11-12T01:00:35.702Z,98040.41
2022-11-12T01:03:21.008Z,98042.06
2022-11-12T01:06:05.957Z,98042.75
2022-11-12T01:08:50.820Z,98042.75
2022-11-12T01:11:35.769Z,98038.56
2022-11-12T01:14:20.728Z,98042.91
2022-11-12T01:17:05.665Z,98032.03
2022-11-12T01:19:50.606Z,98043.56
2022-11-12T01:22:35.552Z,98044.41
2022-11-12T01:25:20.605Z,98040.06
2022-11-12T01:28:05.543Z,98041.94
2022-11-12T01:30:50.502Z,98042.56
2022-11-12T01:33:35.295Z,98030.00
2022-11-12T01:36:20.221Z,98029.38
2022-11-12T01:39:05.148Z,98031.00
2022-11-12T01:41:50.074Z,98025.56
2022-11-12T01:44:34.940Z,98020.78
2022-11-12T01:47:19.926Z,98020.84
2022-11-12T01:50:06.074Z,98018.03
2022-11-12T01:52:51.264Z,98014.78
2022-11-12T01:55:36.370Z,98011.94
2022-11-12T01:58:21.197Z,98009.25
2022-11-12T02:01:06.041Z,98010.50
2022-11-12T02:03:50.786Z,98010.03
2022-11-12T02:06:35.706Z,98009.41
2022-11-12T02:09:20.492Z,97998.97
2022-11-12T02:12:05.499Z,97992.44
2022-11-12T02:14:50.402Z,97992.69
2022-11-12T02:17:35.278Z,97996.03
2022-11-12T02:20:20.270Z,97994.19
2022-11-12T02:23:05.056Z,97987.19
2022-11-12T02:25:50.015Z,97994.03
2022-11-12T02:28:34.869Z,97982.72
2022-11-12T02:31:19.757Z,97987.84
2022-11-12T02:34:04.729Z,97981.25
2022-11-12T02:36:49.699Z,97972.84
2022-11-12T02:39:34.614Z,97978.38
2022-11-12T02:42:19.470Z,97985.34
2022-11-12T02:45:04.571Z,97978.78
2022-11-12T02:47:49.442Z,97975.91
2022-11-12T02:50:34.263Z,97975.97
2022-11-12T02:53:19.105Z,97967.88
2022-11-12T02:56:04.018Z,97967.81
2022-11-12T02:58:48.902Z,97966.84
2022-11-12T03:01:33.885Z,97964.31
2022-11-12T03:04:19.367Z,97968.84
2022-11-12T03:07:04.337Z,97964.50
2022-11-12T03:09:49.190Z,97968.34
2022-11-12T03:12:33.978Z,97961.19
2022-11-12T03:15:19.011Z,97963.22
2022-11-12T03:18:03.812Z,97960.22
2022-11-12T03:20:48.878Z,97950.53
2022-11-12T03:23:33.948Z,97950.75
2022-11-12T03:26:18.849Z,97952.09
2022-11-12T03:29:03.926Z,97943.19
2022-11-12T03:31:48.730Z,97944.75
2022-11-12T03:34:33.580Z,97935.75
2022-11-12T03:37:18.533Z,97937.72
2022-11-12T03:40:03.489Z,97934.66
2022-11-12T03:42:48.313Z,97942.94
2022-11-12T03:45:33.451Z,97948.38
2022-11-12T03:48:18.281Z,97943.41
2022-11-12T03:51:03.162Z,97947.94
2022-11-12T03:53:48.126Z,97937.59
2022-11-12T03:56:32.919Z,97948.25
2022-11-12T03:59:17.976Z,97945.97
2022-11-12T04:02:02.740Z,97940.88
2022-11-12T04:04:47.628Z,97943.81
2022-11-12T04:07:32.406Z,97942.13
2022-11-12T04:10:17.291Z,97943.72
2022-11-12T04:13:02.263Z,97947.88
2022-11-12T04:15:47.236Z,97948.94
2022-11-12T04:18:32.082Z,97944.88
2022-11-12T04:21:17.023Z,97943.59
2022-11-12T04:24:01.991Z,97937.59
2022-11-12T04:26:46.761Z,97936.47
2022-11-12T04:29:36.343Z,97931.66
2022-11-12T04:32:22.281Z,97932.91
2022-11-12T04:35:07.284Z,97939.69
2022-11-12T04:37:52.250Z,97943.59
2022-11-12T04:40:37.196Z,97941.13
2022-11-12T04:43:22.148Z,97945.81
2022-11-12T04:46:07.188Z,97939.59
2022-11-12T04:48:52.068Z,97936.13
2022-11-12T04:51:37.072Z,97951.63
2022-11-12T04:54:21.921Z,97946.66
2022-11-12T04:57:07.066Z,97940.25
2022-11-12T04:59:51.855Z,97941.56
2022-11-12T05:02:36.819Z,97931.25
2022-11-12T05:05:21.656Z,97930.78
2022-11-12T05:08:06.635Z,97928.38
2022-11-12T05:10:51.630Z,97928.06
2022-11-12T05:13:36.650Z,97929.81
2022-11-12T05:16:21.547Z,97927.91
2022-11-12T05:19:06.369Z,97927.59
2022-11-12T05:21:51.279Z,97927.03
2022-11-12T05:24:43.028Z,97928.22
2022-11-12T05:27:28.116Z,97929.00
2022-11-12T05:30:13.089Z,97928.06
2022-11-12T05:32:57.949Z,97928.13
2022-11-12T05:35:42.877Z,97924.56
2022-11-12T05:38:28.022Z,97928.44
2022-11-12T05:41:18.793Z,97926.22
2022-11-12T05:44:04.932Z,97936.44
2022-11-12T05:46:49.913Z,97932.19
2022-11-12T05:49:34.854Z,97930.78
2022-11-12T05:52:19.766Z,97932.75
2022-11-12T05:55:04.455Z,97937.63
2022-11-12T05:57:49.388Z,97934.34
2022-11-12T06:00:34.258Z,97939.13
2022-11-12T06:03:19.290Z,97936.09
2022-11-12T06:06:04.336Z,97937.38
2022-11-12T06:08:49.210Z,97945.91
2022-11-12T06:11:34.175Z,97941.59
2022-11-12T06:14:19.108Z,97945.09
2022-11-12T06:17:04.073Z,97950.44
2022-11-12T06:19:48.937Z,97946.84
2022-11-12T06:22:33.888Z,97949.34
2022-11-12T06:25:18.780Z,97949.44
2022-11-12T06:28:03.644Z,97951.38
2022-11-12T06:30:48.716Z,97953.78
2022-11-12T06:33:33.643Z,97955.88
2022-11-12T06:36:18.591Z,97957.66
2022-11-12T06:39:03.354Z,97951.75
2022-11-12T06:41:48.327Z,97960.66
2022-11-12T06:44:33.170Z,97959.47
2022-11-12T06:47:18.140Z,97954.41
2022-11-12T06:50:03.090Z,97954.72
2022-11-12T06:52:47.954Z,97955.19
2022-11-12T06:55:32.910Z,97951.47
2022-11-12T06:58:17.631Z,97953.66
2022-11-12T07:01:04.774Z,97953.13
2022-11-12T07:03:53.450Z,97952.22
2022-11-12T07:06:38.372Z,97951.13
2022-11-12T07:09:23.398Z,97946.41
2022-11-12T07:12:08.240Z,97947.31
2022-11-12T07:14:53.132Z,97952.00
2022-11-12T07:17:38.013Z,97955.72
2022-11-12T07:20:22.854Z,97949.59
2022-11-12T07:23:07.726Z,97955.75
2022-11-12T07:25:52.545Z,97954.72
2022-11-12T07:28:37.551Z,97959.31
2022-11-12T07:31:22.466Z,97959.97
2022-11-12T07:34:07.455Z,97957.03
2022-11-12T07:36:52.215Z,97961.63
2022-11-12T07:39:37.103Z,97961.06
2022-11-12T07:42:21.871Z,97964.56
2022-11-12T07:45:06.749Z,97970.16
2022-11-12T07:47:51.718Z,97973.88
2022-11-12T07:50:36.645Z,97972.03
2022-11-12T07:53:21.776Z,97973.50
2022-11-12T07:56:06.603Z,97972.13
2022-11-12T07:58:51.578Z,97972.03
2022-11-12T08:01:36.599Z,97975.19
2022-11-12T08:04:21.576Z,97972.03
2022-11-12T08:07:06.502Z,97968.44
2022-11-12T08:09:51.768Z,97968.34
2022-11-12T08:12:36.662Z,97972.47
2022-11-12T08:15:21.414Z,97982.34
2022-11-12T08:18:06.423Z,97967.22
2022-11-12T08:20:51.226Z,97981.69
2022-11-12T08:23:36.107Z,97977.91
2022-11-12T08:26:21.034Z,97982.41
2022-11-12T08:29:08.661Z,97978.13
2022-11-12T08:31:54.334Z,97974.25
2022-11-12T08:34:39.115Z,97974.59
2022-11-12T08:37:24.175Z,97976.00
2022-11-12T08:40:09.457Z,97983.28
2022-11-12T08:42:54.340Z,97986.22
2022-11-12T08:45:39.176Z,97988.16
2022-11-12T08:48:24.296Z,97988.22
2022-11-12T08:51:09.609Z,97991.53
2022-11-12T08:53:54.566Z,97987.91
2022-11-12T08:56:39.539Z,97981.16
2022-11-12T08:59:24.294Z,97981.28
2022-11-12T09:02:09.259Z,97987.13
2022-11-12T09:04:54.141Z,97991.47
2022-11-12T09:07:54.663Z,97988.72
2022-11-12T09:10:39.562Z,97994.13
2022-11-12T09:13:24.583Z,97989.59
2022-11-12T09:16:09.905Z,97992.69
2022-11-12T09:18:54.763Z,97991.00
2022-11-12T09:21:39.678Z,97988.63
2022-11-12T09:24:24.585Z,97986.31
2022-11-12T09:27:09.479Z,97988.78
2022-11-12T09:29:54.286Z,97994.81
2022-11-12T09:32:39.249Z,97985.06
2022-11-12T09:35:24.228Z,97988.41
2022-11-12T09:38:08.970Z,97997.66
2022-11-12T09:40:53.820Z,97995.94
2022-11-12T09:43:38.728Z,97995.59
2022-11-12T09:46:28.113Z,97992.34
2022-11-12T09:49:13.672Z,97999.44
2022-11-12T09:51:58.618Z,98006.44
2022-11-12T09:54:43.652Z,98008.75
2022-11-12T09:57:28.571Z,98003.53
2022-11-12T10:00:13.449Z,98004.13
2022-11-12T10:02:58.342Z,98003.81
2022-11-12T10:05:43.302Z,97996.84
2022-11-12T10:08:28.609Z,97993.06
2022-11-12T10:11:13.705Z,97991.91
2022-11-12T10:13:58.692Z,97992.69
2022-11-12T10:16:43.650Z,97984.31
2022-11-12T10:19:28.673Z,97988.53
2022-11-12T10:22:13.570Z,97976.22
2022-11-12T10:24:58.526Z,97974.25
2022-11-12T10:27:43.335Z,97970.88
2022-11-12T10:30:28.233Z,97967.84
2022-11-12T10:33:13.225Z,97963.91
2022-11-12T10:35:58.078Z,97954.38
2022-11-12T10:38:43.173Z,97950.28
2022-11-12T10:41:28.035Z,97953.94
2022-11-12T10:44:12.946Z,97941.06
2022-11-12T10:46:57.676Z,97942.16
2022-11-12T10:49:42.591Z,97945.50
2022-11-12T10:52:27.493Z,97927.78
2022-11-12T10:55:12.318Z,97933.47
2022-11-12T10:57:57.305Z,97925.03
2022-11-12T11:00:42.155Z,97927.91
2022-11-12T11:03:27.242Z,97929.09
2022-11-12T11:06:12.023Z,97922.34
2022-11-12T11:08:57.046Z,97911.00
2022-11-12T11:11:41.793Z,97909.94
2022-11-12T11:14:26.650Z,97906.69
2022-11-12T11:17:11.480Z,97909.81
2022-11-12T11:19:56.403Z,97901.84
2022-11-12T11:22:41.607Z,97892.66
2022-11-12T11:25:26.405Z,97881.75
2022-11-12T11:28:11.502Z,97871.22
2022-11-12T11:30:56.257Z,97879.69
2022-11-12T11:33:41.210Z,97869.56
2022-11-12T11:36:26.091Z,97875.75
2022-11-12T11:39:10.902Z,97878.00
2022-11-12T11:41:55.864Z,97878.00
2022-11-12T11:44:40.834Z,97871.84
2022-11-12T11:47:33.949Z,97866.25
2022-11-12T11:50:23.692Z,97874.72
2022-11-12T11:53:08.556Z,97868.38
2022-11-12T11:55:53.401Z,97870.75
2022-11-12T11:58:38.373Z,97869.94
2022-11-12T12:01:23.303Z,97862.94
2022-11-12T12:04:08.358Z,97852.97
2022-11-12T12:06:53.220Z,97852.91
2022-11-12T12:09:38.346Z,97851.78
2022-11-12T12:12:23.136Z,97838.78
2022-11-12T12:15:07.956Z,97846.44
2022-11-12T12:17:52.705Z,97835.91
2022-11-12T12:20:37.535Z,97834.66
2022-11-12T12:23:22.433Z,97831.34
2022-11-12T12:26:07.347Z,97825.53
2022-11-12T12:28:52.216Z,97827.78
2022-11-12T12:31:37.076Z,97815.81
2022-11-12T12:34:22.070Z,97817.28
2022-11-12T12:37:06.840Z,97801.41
2022-11-12T12:39:51.887Z,97800.72
2022-11-12T12:42:36.669Z,97805.88
2022-11-12T12:45:21.677Z,97803.16
2022-11-12T12:48:06.529Z,97797.34
2022-11-12T12:50:51.244Z,97794.81
2022-11-12T12:53:36.076Z,97796.97
2022-11-12T12:56:20.937Z,97797.66
2022-11-12T12:59:05.966Z,97787.47
2022-11-12T13:01:50.761Z,97783.19
2022-11-12T13:04:35.677Z,97783.72
2022-11-12T13:07:20.597Z,97777.56
2022-11-12T13:10:05.475Z,97782.34
2022-11-12T13:12:50.776Z,97779.44
2022-11-12T13:15:35.642Z,97770.78
2022-11-12T13:18:20.744Z,97767.13
2022-11-12T13:21:05.692Z,97769.00
2022-11-12T13:23:50.658Z,97761.78
2022-11-12T13:26:35.585Z,97760.00
2022-11-12T13:29:20.594Z,97761.91
2022-11-12T13:32:05.615Z,97763.34
2022-11-12T13:34:50.407Z,97762.84
2022-11-12T13:37:35.364Z,97765.41
2022-11-12T13:40:20.028Z,97751.72
2022-11-12T13:43:04.923Z,97757.47
2022-11-12T13:45:49.615Z,97747.84
2022-11-12T13:48:34.705Z,97754.03
2022-11-12T13:51:19.446Z,97758.38
2022-11-12T13:54:04.504Z,97752.03
2022-11-12T13:56:49.344Z,97752.03
2022-11-12T13:59:34.226Z,97753.56
2022-11-12T14:02:19.105Z,97757.00
2022-11-12T14:05:03.970Z,97750.22
2022-11-12T14:07:49.047Z,97746.47
2022-11-12T14:10:33.864Z,97734.91
2022-11-12T14:13:18.809Z,97734.50
2022-11-12T14:16:03.634Z,97732.25
2022-11-12T14:18:48.537Z,97727.75
2022-11-12T14:21:33.366Z,97725.75
2022-11-12T14:24:18.246Z,97723.66
2022-11-12T14:27:03.194Z,97724.25
2022-11-12T14:29:48.275Z,97719.06
2022-11-12T14:32:33.637Z,97720.00
2022-11-12T14:35:18.539Z,97720.41
2022-11-12T14:38:03.475Z,97721.34
2022-11-12T14:40:48.361Z,97715.63
2022-11-12T14:43:33.351Z,97712.69
2022-11-12T14:46:18.132Z,97712.59
2022-11-12T14:49:04.289Z,97708.53
2022-11-12T14:51:49.250Z,97709.22
2022-11-12T14:54:34.271Z,97706.47
2022-11-12T14:57:19.848Z,97707.84
2022-11-12T15:00:04.759Z,97711.44
2022-11-12T15:02:59.182Z,97708.63
2022-11-12T15:05:44.742Z,97705.03
2022-11-12T15:08:29.760Z,97697.50
2022-11-12T15:11:18.875Z,97682.72
2022-11-12T15:14:06.482Z,97678.63
2022-11-12T15:16:51.504Z,97671.91
2022-11-12T15:19:36.719Z,97670.69
2022-11-12T15:22:21.650Z,97672.50
2022-11-12T15:25:06.574Z,97673.25
2022-11-12T15:27:52.112Z,97665.97
2022-11-12T15:30:37.278Z,97664.78
2022-11-12T15:33:22.523Z,97660.25
2022-11-12T15:36:07.586Z,97659.84
2022-11-12T15:38:52.492Z,97650.50
2022-11-12T15:41:37.497Z,97642.91
2022-11-12T15:44:22.410Z,97643.75
2022-11-12T15:47:07.304Z,97636.53
2022-11-12T15:49:52.314Z,97642.50
2022-11-12T15:52:37.216Z,97648.25
2022-11-12T15:55:22.073Z,97642.31
2022-11-12T15:58:06.927Z,97637.78
2022-11-12T16:00:52.084Z,97631.44
2022-11-12T16:03:36.901Z,97635.06
2022-11-12T16:06:21.888Z,97629.53
2022-11-12T16:09:06.814Z,97634.41
2022-11-12T16:11:51.805Z,97630.91
2022-11-12T16:14:36.811Z,97627.78
2022-11-12T16:17:21.623Z,97623.88
2022-11-12T16:20:06.489Z,97610.75
2022-11-12T16:22:51.377Z,97613.84
2022-11-12T16:25:36.530Z,97616.69
2022-11-12T16:28:21.438Z,97626.09
2022-11-12T16:31:06.507Z,97623.81
2022-11-12T16:33:51.815Z,97622.41
2022-11-12T16:36:36.804Z,97627.94
2022-11-12T16:39:21.839Z,97628.38
2022-11-12T16:42:06.568Z,97619.78
2022-11-12T16:44:51.535Z,97619.81
2022-11-12T16:47:36.418Z,97616.66
2022-11-12T16:50:21.333Z,97626.09
2022-11-12T16:53:06.438Z,97630.59
2022-11-12T16:55:51.325Z,97616.84
2022-11-12T16:58:36.245Z,97615.09
2022-11-12T17:01:21.159Z,97613.03
2022-11-12T17:04:06.102Z,97611.41
2022-11-12T17:06:50.986Z,97609.75
2022-11-12T17:09:36.415Z,97615.31
2022-11-12T17:12:21.360Z,97620.25
2022-11-12T17:15:06.126Z,97615.50
2022-11-12T17:17:51.009Z,97609.56
2022-11-12T17:20:35.854Z,97603.97
2022-11-12T17:23:20.813Z,97608.91
2022-11-12T17:26:05.649Z,97610.50
2022-11-12T17:28:55.573Z,97616.94
2022-11-12T17:31:44.199Z,97614.66
2022-11-12T17:34:29.173Z,97602.53
2022-11-12T17:37:14.196Z,97603.13
2022-11-12T17:39:58.962Z,97594.13
2022-11-12T17:42:44.116Z,97592.69
2022-11-12T17:45:28.975Z,97590.59
2022-11-12T17:48:13.729Z,97596.28
2022-11-12T17:50:58.568Z,97590.94
2022-11-12T17:53:43.424Z,97594.88
2022-11-12T17:56:31.795Z,97595.44
2022-11-12T17:59:19.356Z,97595.66
2022-11-12T18:02:04.263Z,97591.50
2022-11-12T18:04:49.244Z,97598.09
2022-11-12T18:07:34.032Z,97581.81
2022-11-12T18:10:19.755Z,97577.47
2022-11-12T18:13:04.808Z,97584.50
2022-11-12T18:15:49.779Z,97574.38
2022-11-12T18:18:34.672Z,97576.06
2022-11-12T18:21:19.537Z,97570.13
2022-11-12T18:24:04.658Z,97561.06
2022-11-12T18:26:49.469Z,97558.03
2022-11-12T18:29:34.346Z,97569.75
2022-11-12T18:32:19.251Z,97567.50
2022-11-12T18:35:04.267Z,97569.78
2022-11-12T18:37:49.185Z,97569.59
2022-11-12T18:40:33.976Z,97572.09
2022-11-12T18:43:19.020Z,97557.50
2022-11-12T18:46:03.888Z,97554.25
2022-11-12T18:48:48.880Z,97558.38
2022-11-12T18:51:33.785Z,97548.72
2022-11-12T18:54:18.843Z,97535.81
2022-11-12T18:57:03.728Z,97546.09
2022-11-12T18:59:48.675Z,97544.88
2022-11-12T19:02:33.539Z,97541.97
2022-11-12T19:05:18.783Z,97533.09
2022-11-12T19:08:04.240Z,97526.53
2022-11-12T19:10:49.050Z,97526.16
2022-11-12T19:13:33.897Z,97522.38
2022-11-12T19:16:18.730Z,97530.25
2022-11-12T19:19:03.651Z,97527.78
2022-11-12T19:21:48.462Z,97527.19
2022-11-12T19:24:33.380Z,97517.13
2022-11-12T19:27:18.222Z,97519.19
2022-11-12T19:30:03.663Z,97514.06
2022-11-12T19:32:49.118Z,97508.47
2022-11-12T19:35:33.942Z,97526.75
2022-11-12T19:38:18.807Z,97516.44
2022-11-12T19:41:03.542Z,97520.59
2022-11-12T19:43:48.555Z,97516.78
2022-11-12T19:46:33.360Z,97517.28
2022-11-12T19:49:18.205Z,97515.91
2022-11-12T19:52:03.117Z,97517.72
2022-11-12T19:54:48.023Z,97531.72
2022-11-12T19:57:32.983Z,97522.69
2022-11-12T20:00:17.808Z,97525.56
2022-11-12T20:03:02.881Z,97516.75
2022-11-12T20:05:47.722Z,97515.78
2022-11-12T20:08:32.900Z,97501.94
2022-11-12T20:11:18.311Z,97503.38
2022-11-12T20:14:03.366Z,97509.53
2022-11-12T20:16:48.185Z,97509.97
2022-11-12T20:19:33.173Z,97514.06
2022-11-12T20:22:18.045Z,97495.34
2022-11-12T20:25:02.934Z,97483.59
2022-11-12T20:27:47.971Z,97500.25
2022-11-12T20:30:33.076Z,97492.59
2022-11-12T20:33:17.973Z,97482.56
2022-11-12T20:36:02.991Z,97489.13
2022-11-12T20:38:47.904Z,97497.34
2022-11-12T20:41:32.797Z,97502.91
2022-11-12T20:44:17.740Z,97491.19
2022-11-12T20:47:02.684Z,97502.91
2022-11-12T20:49:47.586Z,97502.47
2022-11-12T20:52:32.598Z,97500.22
2022-11-12T20:55:17.485Z,97489.47
2022-11-12T20:58:02.542Z,97483.53
2022-11-12T21:00:47.568Z,97482.50
2022-11-12T21:03:32.905Z,97464.41
2022-11-12T21:06:17.972Z,97462.78
2022-11-12T21:09:02.701Z,97460.50
2022-11-12T21:11:47.635Z,97453.94
2022-11-12T21:14:32.568Z,97463.19
2022-11-12T21:17:17.577Z,97453.53
2022-11-12T21:20:02.696Z,97458.66
2022-11-12T21:22:47.404Z,97463.94
2022-11-12T21:25:32.238Z,97464.34
2022-11-12T21:28:17.075Z,97462.88
2022-11-12T21:31:02.027Z,97454.09
2022-11-12T21:33:46.863Z,97456.16
2022-11-12T21:36:31.827Z,97452.88
2022-11-12T21:39:17.782Z,97453.91
2022-11-12T21:42:02.879Z,97458.88
2022-11-12T21:44:47.921Z,97446.03
2022-11-12T21:47:32.685Z,97449.97
2022-11-12T21:50:17.600Z,97448.91
2022-11-12T21:53:02.448Z,97451.78
2022-11-12T21:55:47.413Z,97437.03
2022-11-12T21:58:32.348Z,97447.91
2022-11-12T22:01:17.789Z,97443.34
2022-11-12T22:04:03.085Z,97448.09
2022-11-12T22:06:48.510Z,97435.53
2022-11-12T22:09:33.522Z,97434.94
2022-11-12T22:12:18.459Z,97434.28
2022-11-12T22:15:03.451Z,97440.66
2022-11-12T22:17:48.113Z,97448.22
2022-11-12T22:20:33.039Z,97452.09
2022-11-12T22:23:17.788Z,97443.84
2022-11-12T22:26:02.838Z,97441.78
2022-11-12T22:28:47.846Z,97435.78
2022-11-12T22:31:32.817Z,97438.81
2022-11-12T22:34:17.732Z,97431.84
2022-11-12T22:37:02.540Z,97435.56
2022-11-12T22:39:47.515Z,97433.72
2022-11-12T22:42:32.316Z,97418.47
2022-11-12T22:45:17.242Z,97408.66
2022-11-12T22:48:02.167Z,97405.91
2022-11-12T22:50:46.949Z,97411.66
2022-11-12T22:53:31.849Z,97418.63
2022-11-12T22:56:16.726Z,97416.13
2022-11-12T22:59:01.802Z,97415.25
2022-11-12T23:01:46.740Z,97404.81
2022-11-12T23:04:31.642Z,97405.38
2022-11-12T23:07:16.594Z,97399.00
2022-11-12T23:10:01.578Z,97394.44
2022-11-12T23:12:46.422Z,97381.53
2022-11-12T23:15:31.351Z,97385.78
2022-11-12T23:18:16.277Z,97393.38
2022-11-12T23:21:00.953Z,97388.81
2022-11-12T23:23:45.882Z,97375.91
2022-11-12T23:26:30.779Z,97378.41
2022-11-12T23:29:15.857Z,97366.25
2022-11-12T23:32:00.692Z,97369.75
2022-11-12T23:34:45.623Z,97367.50
2022-11-12T23:37:30.638Z,97357.41
2022-11-12T23:40:15.649Z,97357.19
2022-11-12T23:43:00.500Z,97354.75
2022-11-12T23:45:45.495Z,97352.66
2022-11-12T23:48:30.674Z,97356.38
2022-11-12T23:51:15.765Z,97355.13
2022-11-12T23:54:00.787Z,97350.81
2022-11-12T23:56:45.669Z,97347.13
2022-11-12T23:59:30.620Z,97341.41
